sensor_id;sensor_type;location;lat;lon;timestamp;pressure;altitude;pressure_sealevel;temperature;humidity
60725;BME280;59881;36.722;-4.462;2022-07-29T00:00:03;99827.63;;;19.22;63.29
60725;BME280;59881;36.722;-4.462;2022-07-29T00:02:29;100391.50;;;22.68;63.93
60725;BME280;59881;36.722;-4.462;2022-07-29T00:04:55;100513.06;;;23.43;64.44
60725;BME280;59881;36.722;-4.462;2022-07-29T00:07:20;100154.19;;;21.23;65.12
60725;BME280;59881;36.722;-4.462;2022-07-29T00:09:46;100527.09;;;22.93;65.22
60725;BME280;59881;36.722;-4.462;2022-07-29T00:12:11;100223.59;;;21.63;65.36
60725;BME280;59881;36.722;-4.462;2022-07-29T00:14:37;100119.81;;;20.97;65.51
60725;BME280;59881;36.722;-4.462;2022-07-29T00:17:03;99916.38;;;19.70;66.03
60725;BME280;59881;36.722;-4.462;2022-07-29T00:19:28;100506.56;;;23.37;66.23
60725;BME280;59881;36.722;-4.462;2022-07-29T00:21:54;99937.63;;;19.87;65.76
60725;BME280;59881;36.722;-4.462;2022-07-29T00:24:19;100320.59;;;22.26;66.22
60725;BME280;59881;36.722;-4.462;2022-07-29T00:26:45;99730.97;;;18.57;65.30
60725;BME280;59881;36.722;-4.462;2022-07-29T00:31:36;100500.94;;;23.32;65.73
60725;BME280;59881;36.722;-4.462;2022-07-29T00:34:02;100181.63;;;21.40;65.86
60725;BME280;59881;36.722;-4.462;2022-07-29T00:36:28;100471.44;;;23.17;65.76
60725;BME280;59881;36.722;-4.462;2022-07-29T00:38:53;100398.34;;;22.70;66.16
60725;BME280;59881;36.722;-4.462;2022-07-29T00:41:19;100494.34;;;23.34;65.32
60725;BME280;59881;36.722;-4.462;2022-07-29T00:43:45;100317.44;;;22.22;64.63
60725;BME280;59881;36.722;-4.462;2022-07-29T00:46:11;99822.06;;;19.23;64.02
60725;BME280;59881;36.722;-4.462;2022-07-29T00:48:37;100280.16;;;21.83;63.25
60725;BME280;59881;36.722;-4.462;2022-07-29T00:51:04;100384.44;;;22.67;63.44
60725;BME280;59881;36.722;-4.462;2022-07-29T00:53:30;100483.78;;;23.33;63.13
60725;BME280;59881;36.722;-4.462;2022-07-29T00:55:57;99989.31;;;20.32;61.81
60725;BME280;59881;36.722;-4.462;2022-07-29T00:58:23;100639.59;;;23.41;61.51
60725;BME280;59881;36.722;-4.462;2022-07-29T01:00:49;100531.22;;;22.89;61.32
60725;BME280;59881;36.722;-4.462;2022-07-29T01:03:14;100477.84;;;23.38;60.67
60725;BME280;59881;36.722;-4.462;2022-07-29T01:05:41;100031.66;;;20.66;59.64
60725;BME280;59881;36.722;-4.462;2022-07-29T01:08:08;99813.41;;;19.21;59.83
60725;BME280;59881;36.722;-4.462;2022-07-29T01:10:37;100465.03;;;23.40;59.22
60725;BME280;59881;36.722;-4.462;2022-07-29T01:13:03;99805.88;;;19.25;58.85
60725;BME280;59881;36.722;-4.462;2022-07-29T01:15:30;100441.34;;;23.28;58.88
60725;BME280;59881;36.722;-4.462;2022-07-29T01:18:14;100205.31;;;19.75;58.70
60725;BME280;59881;36.722;-4.462;2022-07-29T01:28:47;100597.81;;;23.24;60.93
60725;BME280;59881;36.722;-4.462;2022-07-29T01:31:26;100454.09;;;23.20;60.58
60725;BME280;59881;36.722;-4.462;2022-07-29T01:33:58;99613.56;;;17.96;60.30
60725;BME280;59881;36.722;-4.462;2022-07-29T01:36:33;99755.69;;;18.74;60.17
60725;BME280;59881;36.722;-4.462;2022-07-29T01:39:27;100458.94;;;22.94;60.15
60725;BME280;59881;36.722;-4.462;2022-07-29T01:42:12;100616.50;;;22.87;60.39
60725;BME280;59881;36.722;-4.462;2022-07-29T01:44:48;100426.88;;;22.57;60.47
60725;BME280;59881;36.722;-4.462;2022-07-29T01:47:20;100363.31;;;22.13;60.36
60725;BME280;59881;36.722;-4.462;2022-07-29T01:49:50;99895.03;;;19.24;60.63
60725;BME280;59881;36.722;-4.462;2022-07-29T01:52:39;100446.50;;;22.72;60.82
60725;BME280;59881;36.722;-4.462;2022-07-29T01:55:10;99905.16;;;19.29;60.71
60725;BME280;59881;36.722;-4.462;2022-07-29T01:57:39;100355.00;;;22.22;60.33
60725;BME280;59881;36.722;-4.462;2022-07-29T02:00:08;99642.09;;;17.79;60.01
60725;BME280;59881;36.722;-4.462;2022-07-29T02:02:35;99897.72;;;19.39;60.10
60725;BME280;59881;36.722;-4.462;2022-07-29T02:05:03;100388.84;;;22.38;59.86
60725;BME280;59881;36.722;-4.462;2022-07-29T02:07:32;100233.16;;;21.27;59.52
60725;BME280;59881;36.722;-4.462;2022-07-29T02:10:00;99134.00;;;13.56;59.02
60725;BME280;59881;36.722;-4.462;2022-07-29T02:12:29;100363.59;;;22.33;59.57
60725;BME280;59881;36.722;-4.462;2022-07-29T02:14:59;100337.56;;;22.18;60.77
60725;BME280;59881;36.722;-4.462;2022-07-29T02:17:29;99734.78;;;18.40;61.73
60725;BME280;59881;36.722;-4.462;2022-07-29T02:20:00;100440.25;;;22.86;62.61
60725;BME280;59881;36.722;-4.462;2022-07-29T02:22:29;99336.56;;;15.94;62.72
60725;BME280;59881;36.722;-4.462;2022-07-29T02:24:57;99894.22;;;19.38;63.75
60725;BME280;59881;36.722;-4.462;2022-07-29T02:27:24;99658.25;;;17.86;63.95
60725;BME280;59881;36.722;-4.462;2022-07-29T02:29:53;98424.00;;;10.12;63.41
60725;BME280;59881;36.722;-4.462;2022-07-29T02:32:21;99767.44;;;18.42;64.24
60725;BME280;59881;36.722;-4.462;2022-07-29T02:34:50;99869.78;;;19.03;64.32
60725;BME280;59881;36.722;-4.462;2022-07-29T02:37:16;100528.94;;;21.96;64.38
60725;BME280;59881;36.722;-4.462;2022-07-29T02:39:44;100429.84;;;22.47;65.04
60725;BME280;59881;36.722;-4.462;2022-07-29T02:42:13;99485.19;;;16.60;65.23
60725;BME280;59881;36.722;-4.462;2022-07-29T02:44:41;100459.28;;;22.55;65.72
60725;BME280;59881;36.722;-4.462;2022-07-29T02:47:11;100634.59;;;22.56;66.09
60725;BME280;59881;36.722;-4.462;2022-07-29T02:55:20;100641.34;;;22.51;66.70
60725;BME280;59881;36.722;-4.462;2022-07-29T02:58:03;100564.53;;;22.50;67.14
60725;BME280;59881;36.722;-4.462;2022-07-29T03:00:34;100597.78;;;22.49;67.10
60725;BME280;59881;36.722;-4.462;2022-07-29T03:03:04;100424.50;;;22.32;67.74
60725;BME280;59881;36.722;-4.462;2022-07-29T03:05:32;99806.91;;;18.47;67.81
60725;BME280;59881;36.722;-4.462;2022-07-29T03:08:01;100481.88;;;22.46;68.21
60725;BME280;59881;36.722;-4.462;2022-07-29T03:10:28;100524.72;;;22.01;68.60
60725;BME280;59881;36.722;-4.462;2022-07-29T03:12:55;99836.78;;;17.70;67.90
60725;BME280;59881;36.722;-4.462;2022-07-29T03:15:21;100610.44;;;22.41;68.33
60725;BME280;59881;36.722;-4.462;2022-07-29T03:17:49;99740.00;;;17.94;67.56
60725;BME280;59881;36.722;-4.462;2022-07-29T03:20:15;99765.16;;;17.91;67.05
60725;BME280;59881;36.722;-4.462;2022-07-29T03:22:42;99908.31;;;18.70;67.34
60725;BME280;59881;36.722;-4.462;2022-07-29T03:25:10;100606.22;;;22.23;66.92
60725;BME280;59881;36.722;-4.462;2022-07-29T03:27:35;100106.41;;;17.98;66.33
60725;BME280;59881;36.722;-4.462;2022-07-29T03:30:01;100457.59;;;22.24;66.31
60725;BME280;59881;36.722;-4.462;2022-07-29T03:32:26;100178.41;;;20.54;65.92
60725;BME280;59881;36.722;-4.462;2022-07-29T03:34:52;100459.47;;;21.63;65.28
60725;BME280;59881;36.722;-4.462;2022-07-29T03:37:18;100422.78;;;22.01;65.44
60725;BME280;59881;36.722;-4.462;2022-07-29T03:39:44;100527.19;;;22.03;65.75
60725;BME280;59881;36.722;-4.462;2022-07-29T03:42:13;100414.16;;;21.91;65.75
60725;BME280;59881;36.722;-4.462;2022-07-29T03:44:43;100437.75;;;21.35;65.45
60725;BME280;59881;36.722;-4.462;2022-07-29T03:47:10;100428.88;;;21.95;65.38
60725;BME280;59881;36.722;-4.462;2022-07-29T03:49:39;100420.56;;;21.90;65.05
60725;BME280;59881;36.722;-4.462;2022-07-29T03:52:05;100575.31;;;22.04;64.96
60725;BME280;59881;36.722;-4.462;2022-07-29T03:54:31;100398.00;;;21.38;64.66
60725;BME280;59881;36.722;-4.462;2022-07-29T03:56:59;99593.69;;;16.64;64.28
60725;BME280;59881;36.722;-4.462;2022-07-29T03:59:27;100628.66;;;21.99;64.79
60725;BME280;59881;36.722;-4.462;2022-07-29T04:01:53;99777.16;;;17.71;64.69
60725;BME280;59881;36.722;-4.462;2022-07-29T04:04:20;100473.44;;;21.96;65.01
60725;BME280;59881;36.722;-4.462;2022-07-29T04:06:46;100304.28;;;20.92;64.93
60725;BME280;59881;36.722;-4.462;2022-07-29T04:09:12;100382.13;;;21.37;65.55
60725;BME280;59881;36.722;-4.462;2022-07-29T04:11:41;100379.91;;;21.40;66.59
60725;BME280;59881;36.722;-4.462;2022-07-29T04:14:06;100496.97;;;21.40;67.24
60725;BME280;59881;36.722;-4.462;2022-07-29T04:16:32;99701.22;;;17.27;66.61
60725;BME280;59881;36.722;-4.462;2022-07-29T04:18:58;100592.34;;;21.88;67.07
60725;BME280;59881;36.722;-4.462;2022-07-29T04:21:24;100485.69;;;21.99;67.15
60725;BME280;59881;36.722;-4.462;2022-07-29T04:23:49;99774.50;;;17.71;66.65
60725;BME280;59881;36.722;-4.462;2022-07-29T04:26:19;100492.63;;;22.08;67.23
60725;BME280;59881;36.722;-4.462;2022-07-29T04:28:45;100634.06;;;21.91;67.39
60725;BME280;59881;36.722;-4.462;2022-07-29T04:31:12;100533.13;;;21.52;67.33
60725;BME280;59881;36.722;-4.462;2022-07-29T04:33:38;99952.50;;;18.64;67.24
60725;BME280;59881;36.722;-4.462;2022-07-29T04:36:04;100535.84;;;21.44;67.43
60725;BME280;59881;36.722;-4.462;2022-07-29T04:38:30;100465.97;;;21.68;67.71
60725;BME280;59881;36.722;-4.462;2022-07-29T04:40:55;100557.69;;;21.24;67.79
60725;BME280;59881;36.722;-4.462;2022-07-29T04:43:21;100512.66;;;21.97;68.12
60725;BME280;59881;36.722;-4.462;2022-07-29T04:45:46;100414.94;;;21.39;68.20
60725;BME280;59881;36.722;-4.462;2022-07-29T04:48:12;100476.44;;;21.78;67.77
60725;BME280;59881;36.722;-4.462;2022-07-29T04:50:38;99796.69;;;17.47;67.41
60725;BME280;59881;36.722;-4.462;2022-07-29T04:53:04;99816.97;;;17.64;67.54
60725;BME280;59881;36.722;-4.462;2022-07-29T04:55:30;100397.72;;;21.10;67.83
60725;BME280;59881;36.722;-4.462;2022-07-29T04:57:56;100534.00;;;21.90;68.15
60725;BME280;59881;36.722;-4.462;2022-07-29T05:00:21;99961.22;;;18.50;68.42
60725;BME280;59881;36.722;-4.462;2022-07-29T05:02:48;100509.84;;;21.13;68.43
60725;BME280;59881;36.722;-4.462;2022-07-29T05:05:14;100496.06;;;21.79;67.34
60725;BME280;59881;36.722;-4.462;2022-07-29T05:07:40;100527.06;;;21.96;65.75
60725;BME280;59881;36.722;-4.462;2022-07-29T05:10:06;100443.88;;;20.89;63.95
60725;BME280;59881;36.722;-4.462;2022-07-29T05:12:32;100528.03;;;22.03;62.96
60725;BME280;59881;36.722;-4.462;2022-07-29T05:14:57;98751.91;;;11.13;62.03
60725;BME280;59881;36.722;-4.462;2022-07-29T05:17:23;99797.53;;;17.14;62.33
60725;BME280;59881;36.722;-4.462;2022-07-29T05:19:48;100410.63;;;21.29;62.99
60725;BME280;59881;36.722;-4.462;2022-07-29T05:22:19;100179.94;;;20.02;63.72
60725;BME280;59881;36.722;-4.462;2022-07-29T05:24:45;100509.38;;;22.10;64.22
60725;BME280;59881;36.722;-4.462;2022-07-29T05:27:10;100353.47;;;21.14;65.03
60725;BME280;59881;36.722;-4.462;2022-07-29T05:29:36;99850.38;;;18.08;65.64
60725;BME280;59881;36.722;-4.462;2022-07-29T05:32:02;100445.13;;;21.79;66.58
60725;BME280;59881;36.722;-4.462;2022-07-29T05:34:28;100557.69;;;22.48;67.64
60725;BME280;59881;36.722;-4.462;2022-07-29T05:36:53;99920.19;;;18.59;67.38
60725;BME280;59881;36.722;-4.462;2022-07-29T05:39:19;99724.31;;;17.43;67.04
60725;BME280;59881;36.722;-4.462;2022-07-29T05:41:44;99900.81;;;18.17;67.03
60725;BME280;59881;36.722;-4.462;2022-07-29T05:44:10;100567.78;;;22.76;67.02
60725;BME280;59881;36.722;-4.462;2022-07-29T05:46:36;100188.59;;;20.59;66.62
60725;BME280;59881;36.722;-4.462;2022-07-29T05:49:02;100655.50;;;22.83;66.06
60725;BME280;59881;36.722;-4.462;2022-07-29T05:51:28;99817.75;;;18.99;64.58
60725;BME280;59881;36.722;-4.462;2022-07-29T05:53:53;100395.31;;;22.95;63.64
60725;BME280;59881;36.722;-4.462;2022-07-29T05:56:19;100419.06;;;22.91;62.85
60725;BME280;59881;36.722;-4.462;2022-07-29T05:58:45;100435.06;;;23.86;61.71
60725;BME280;59881;36.722;-4.462;2022-07-29T06:01:10;100614.34;;;24.58;61.23
60725;BME280;59881;36.722;-4.462;2022-07-29T06:03:36;100422.75;;;24.33;60.59
60725;BME280;59881;36.722;-4.462;2022-07-29T06:06:03;99909.19;;;21.41;60.00
60725;BME280;59881;36.722;-4.462;2022-07-29T06:08:29;100534.19;;;25.63;59.81
60725;BME280;59881;36.722;-4.462;2022-07-29T06:10:55;100466.13;;;25.68;59.21
60725;BME280;59881;36.722;-4.462;2022-07-29T06:13:20;100444.38;;;25.89;58.31
60725;BME280;59881;36.722;-4.462;2022-07-29T06:15:46;99934.66;;;23.19;56.92
60725;BME280;59881;36.722;-4.462;2022-07-29T06:18:12;99892.09;;;23.16;56.67
60725;BME280;59881;36.722;-4.462;2022-07-29T06:20:38;100593.94;;;27.13;56.13
60725;BME280;59881;36.722;-4.462;2022-07-29T06:23:04;100535.47;;;28.21;55.37
60725;BME280;59881;36.722;-4.462;2022-07-29T06:25:30;100052.13;;;25.70;54.24
60725;BME280;59881;36.722;-4.462;2022-07-29T06:27:57;100551.75;;;29.20;53.38
60725;BME280;59881;36.722;-4.462;2022-07-29T06:30:23;100533.78;;;29.37;52.64
60725;BME280;59881;36.722;-4.462;2022-07-29T06:32:49;99986.72;;;26.32;51.34
60725;BME280;59881;36.722;-4.462;2022-07-29T06:35:14;99981.75;;;26.91;49.75
60725;BME280;59881;36.722;-4.462;2022-07-29T06:37:40;99978.88;;;27.22;48.73
60725;BME280;59881;36.722;-4.462;2022-07-29T06:40:05;100074.69;;;27.75;48.75
60725;BME280;59881;36.722;-4.462;2022-07-29T06:42:49;100138.41;;;28.85;47.64
60725;BME280;59881;36.722;-4.462;2022-07-29T06:45:15;100541.56;;;32.42;45.17
60725;BME280;59881;36.722;-4.462;2022-07-29T06:47:41;100522.38;;;32.98;43.37
60725;BME280;59881;36.722;-4.462;2022-07-29T06:50:07;100488.88;;;33.03;41.38
60725;BME280;59881;36.722;-4.462;2022-07-29T06:52:36;100526.28;;;34.16;39.17
60725;BME280;59881;36.722;-4.462;2022-07-29T06:55:02;100020.31;;;31.43;37.89
60725;BME280;59881;36.722;-4.462;2022-07-29T06:57:27;100429.63;;;34.37;37.47
60725;BME280;59881;36.722;-4.462;2022-07-29T06:59:53;100604.63;;;35.33;36.56
60725;BME280;59881;36.722;-4.462;2022-07-29T07:02:21;100546.63;;;35.82;36.31
60725;BME280;59881;36.722;-4.462;2022-07-29T07:04:46;100084.09;;;33.24;35.82
60725;BME280;59881;36.722;-4.462;2022-07-29T07:07:12;100532.09;;;36.38;35.15
60725;BME280;59881;36.722;-4.462;2022-07-29T07:09:37;100550.44;;;36.42;35.06
60725;BME280;59881;36.722;-4.462;2022-07-29T07:12:03;100108.78;;;33.60;35.59
60725;BME280;59881;36.722;-4.462;2022-07-29T07:14:28;100408.28;;;35.43;36.16
60725;BME280;59881;36.722;-4.462;2022-07-29T07:16:54;100035.75;;;32.24;34.42
60725;BME280;59881;36.722;-4.462;2022-07-29T07:19:19;100387.88;;;36.21;34.67
60725;BME280;59881;36.722;-4.462;2022-07-29T07:21:45;100551.50;;;37.72;34.41
60725;BME280;59881;36.722;-4.462;2022-07-29T07:24:11;100190.06;;;35.94;33.63
60725;BME280;59881;36.722;-4.462;2022-07-29T07:26:36;100641.28;;;38.55;33.10
60725;BME280;59881;36.722;-4.462;2022-07-29T07:29:03;99987.00;;;35.06;33.13
60725;BME280;59881;36.722;-4.462;2022-07-29T07:31:28;100092.25;;;35.84;32.70
60725;BME280;59881;36.722;-4.462;2022-07-29T07:33:54;100560.63;;;39.03;31.79
60725;BME280;59881;36.722;-4.462;2022-07-29T07:36:19;100300.16;;;37.59;31.95
60725;BME280;59881;36.722;-4.462;2022-07-29T07:38:45;100549.50;;;39.51;31.40
60725;BME280;59881;36.722;-4.462;2022-07-29T07:41:10;99973.66;;;36.13;30.77
60725;BME280;59881;36.722;-4.462;2022-07-29T07:43:36;100062.22;;;36.91;29.83
60725;BME280;59881;36.722;-4.462;2022-07-29T07:46:01;100076.09;;;37.04;30.58
60725;BME280;59881;36.722;-4.462;2022-07-29T07:48:27;100196.81;;;37.82;30.17
60725;BME280;59881;36.722;-4.462;2022-07-29T07:50:55;100088.59;;;37.16;30.22
60725;BME280;59881;36.722;-4.462;2022-07-29T07:53:21;100031.63;;;37.02;29.68
60725;BME280;59881;36.722;-4.462;2022-07-29T07:55:47;100579.41;;;40.56;29.50
60725;BME280;59881;36.722;-4.462;2022-07-29T07:58:13;100139.75;;;38.12;29.26
60725;BME280;59881;36.722;-4.462;2022-07-29T08:00:38;99919.00;;;37.07;29.04
60725;BME280;59881;36.722;-4.462;2022-07-29T08:03:04;100551.50;;;40.58;26.81
60725;BME280;59881;36.722;-4.462;2022-07-29T08:05:30;100535.66;;;40.49;26.54
60725;BME280;59881;36.722;-4.462;2022-07-29T08:07:55;100053.50;;;37.32;26.45
60725;BME280;59881;36.722;-4.462;2022-07-29T08:10:21;100155.50;;;37.87;25.67
60725;BME280;59881;36.722;-4.462;2022-07-29T08:13:09;100592.91;;;40.30;26.00
60725;BME280;59881;36.722;-4.462;2022-07-29T08:15:38;100503.97;;;40.47;26.76
60725;BME280;59881;36.722;-4.462;2022-07-29T08:18:04;100512.34;;;40.83;26.66
60725;BME280;59881;36.722;-4.462;2022-07-29T08:20:30;100581.75;;;41.54;26.52
60725;BME280;59881;36.722;-4.462;2022-07-29T08:22:57;100572.09;;;42.11;25.44
60725;BME280;59881;36.722;-4.462;2022-07-29T08:25:22;100577.75;;;42.77;25.39
60725;BME280;59881;36.722;-4.462;2022-07-29T08:27:48;100475.09;;;42.65;24.62
60725;BME280;59881;36.722;-4.462;2022-07-29T08:30:14;100589.78;;;43.30;24.30
60725;BME280;59881;36.722;-4.462;2022-07-29T08:32:39;100581.59;;;43.94;23.78
60725;BME280;59881;36.722;-4.462;2022-07-29T08:35:05;100479.88;;;43.34;20.33
60725;BME280;59881;36.722;-4.462;2022-07-29T08:37:31;100113.22;;;41.34;22.68
60725;BME280;59881;36.722;-4.462;2022-07-29T08:39:57;100142.06;;;41.77;20.60
60725;BME280;59881;36.722;-4.462;2022-07-29T08:42:22;100446.44;;;43.30;19.36
60725;BME280;59881;36.722;-4.462;2022-07-29T08:44:48;100195.03;;;40.73;20.37
60725;BME280;59881;36.722;-4.462;2022-07-29T08:47:16;100081.63;;;39.20;20.48
60725;BME280;59881;36.722;-4.462;2022-07-29T08:49:42;100331.31;;;41.22;20.89
60725;BME280;59881;36.722;-4.462;2022-07-29T08:52:10;100671.81;;;44.35;19.50
60725;BME280;59881;36.722;-4.462;2022-07-29T08:54:36;100137.78;;;42.49;18.29
60725;BME280;59881;36.722;-4.462;2022-07-29T08:57:03;100252.34;;;44.40;17.65
60725;BME280;59881;36.722;-4.462;2022-07-29T08:59:30;100138.91;;;44.51;16.74
60725;BME280;59881;36.722;-4.462;2022-07-29T09:01:57;100089.50;;;44.81;15.98
60725;BME280;59881;36.722;-4.462;2022-07-29T09:04:27;100626.25;;;48.30;15.85
60725;BME280;59881;36.722;-4.462;2022-07-29T09:06:57;100583.69;;;48.20;15.44
60725;BME280;59881;36.722;-4.462;2022-07-29T09:09:26;100635.59;;;48.05;15.39
60725;BME280;59881;36.722;-4.462;2022-07-29T09:11:52;100681.25;;;48.13;15.89
60725;BME280;59881;36.722;-4.462;2022-07-29T09:14:18;100161.91;;;45.22;16.16
60725;BME280;59881;36.722;-4.462;2022-07-29T09:16:50;100129.00;;;45.12;16.03
60725;BME280;59881;36.722;-4.462;2022-07-29T09:19:27;100593.25;;;48.03;15.81
60725;BME280;59881;36.722;-4.462;2022-07-29T09:21:53;100292.72;;;46.40;15.30
60725;BME280;59881;36.722;-4.462;2022-07-29T09:24:23;100660.41;;;48.55;15.59
60725;BME280;59881;36.722;-4.462;2022-07-29T09:26:49;100614.59;;;48.75;15.78
60725;BME280;59881;36.722;-4.462;2022-07-29T09:29:19;100562.69;;;48.58;16.09
60725;BME280;59881;36.722;-4.462;2022-07-29T09:31:51;100152.94;;;45.94;16.04
60725;BME280;59881;36.722;-4.462;2022-07-29T09:34:22;100434.44;;;47.86;15.75
60725;BME280;59881;36.722;-4.462;2022-07-29T09:36:49;100247.22;;;46.64;15.88
60725;BME280;59881;36.722;-4.462;2022-07-29T09:39:45;100168.94;;;45.97;16.50
60725;BME280;59881;36.722;-4.462;2022-07-29T09:42:11;100179.88;;;46.46;16.34
60725;BME280;59881;36.722;-4.462;2022-07-29T09:44:48;100552.97;;;48.52;15.70
60725;BME280;59881;36.722;-4.462;2022-07-29T09:47:15;100629.41;;;48.44;16.33
60725;BME280;59881;36.722;-4.462;2022-07-29T09:49:54;100723.59;;;48.43;17.06
60725;BME280;59881;36.722;-4.462;2022-07-29T09:52:24;100197.97;;;45.83;17.18
60725;BME280;59881;36.722;-4.462;2022-07-29T09:54:49;100125.72;;;45.87;16.87
60725;BME280;59881;36.722;-4.462;2022-07-29T10:00:01;100627.31;;;50.25;15.54
60725;BME280;59881;36.722;-4.462;2022-07-29T10:02:31;100180.00;;;47.48;15.95
60725;BME280;59881;36.722;-4.462;2022-07-29T10:04:57;100698.34;;;49.94;16.14
60725;BME280;59881;36.722;-4.462;2022-07-29T10:07:23;100614.38;;;49.74;15.23
60725;BME280;59881;36.722;-4.462;2022-07-29T10:09:54;100533.97;;;48.42;15.75
60725;BME280;59881;36.722;-4.462;2022-07-29T10:12:20;100619.22;;;48.67;16.58
60725;BME280;59881;36.722;-4.462;2022-07-29T10:14:46;100604.41;;;48.03;17.43
60725;BME280;59881;36.722;-4.462;2022-07-29T10:17:12;100619.75;;;48.10;17.56
60725;BME280;59881;36.722;-4.462;2022-07-29T10:19:38;100618.31;;;48.79;17.01
60725;BME280;59881;36.722;-4.462;2022-07-29T10:22:06;100577.56;;;48.62;16.98
60725;BME280;59881;36.722;-4.462;2022-07-29T10:24:33;100632.28;;;48.47;17.11
60725;BME280;59881;36.722;-4.462;2022-07-29T10:27:01;100672.28;;;47.63;18.21
60725;BME280;59881;36.722;-4.462;2022-07-29T10:29:28;100165.00;;;44.38;18.38
60725;BME280;59881;36.722;-4.462;2022-07-29T10:34:57;100681.53;;;47.27;19.01
60725;BME280;59881;36.722;-4.462;2022-07-29T10:43:24;100642.31;;;47.88;19.00
60725;BME280;59881;36.722;-4.462;2022-07-29T10:45:56;100630.50;;;47.26;19.47
60725;BME280;59881;36.722;-4.462;2022-07-29T10:48:22;100493.16;;;44.61;20.44
60725;BME280;59881;36.722;-4.462;2022-07-29T10:53:25;100656.84;;;39.18;28.04
60725;BME280;59881;36.722;-4.462;2022-07-29T10:56:30;100070.09;;;32.57;30.84
60725;BME280;59881;36.722;-4.462;2022-07-29T11:01:50;100705.63;;;33.68;36.41
60725;BME280;59881;36.722;-4.462;2022-07-29T11:04:32;100769.13;;;33.02;38.26
60725;BME280;59881;36.722;-4.462;2022-07-29T11:09:30;100451.69;;;31.12;38.98
60725;BME280;59881;36.722;-4.462;2022-07-29T11:11:57;100555.19;;;31.46;40.40
60725;BME280;59881;36.722;-4.462;2022-07-29T11:17:22;100577.81;;;30.94;41.51
60725;BME280;59881;36.722;-4.462;2022-07-29T11:19:48;100674.38;;;31.32;42.31
60725;BME280;59881;36.722;-4.462;2022-07-29T11:22:34;100672.19;;;30.93;42.14
60725;BME280;59881;36.722;-4.462;2022-07-29T11:25:14;100666.34;;;30.55;42.85
60725;BME280;59881;36.722;-4.462;2022-07-29T11:27:40;100292.06;;;27.94;43.53
60725;BME280;59881;36.722;-4.462;2022-07-29T11:30:07;100048.38;;;26.35;43.44
60725;BME280;59881;36.722;-4.462;2022-07-29T11:32:40;100073.38;;;26.55;43.67
60725;BME280;59881;36.722;-4.462;2022-07-29T11:35:20;100668.81;;;30.32;43.76
60725;BME280;59881;36.722;-4.462;2022-07-29T11:41:23;100662.06;;;30.35;40.26
60725;BME280;59881;36.722;-4.462;2022-07-29T11:46:47;100660.72;;;30.14;41.56
60725;BME280;59881;36.722;-4.462;2022-07-29T11:49:20;100630.13;;;29.77;41.92
60725;BME280;59881;36.722;-4.462;2022-07-29T11:51:56;100631.94;;;29.95;42.57
60725;BME280;59881;36.722;-4.462;2022-07-29T11:54:34;100559.75;;;29.45;41.49
60725;BME280;59881;36.722;-4.462;2022-07-29T11:57:00;100128.69;;;26.46;43.11
60725;BME280;59881;36.722;-4.462;2022-07-29T11:59:26;99984.97;;;25.94;40.37
60725;BME280;59881;36.722;-4.462;2022-07-29T12:01:59;100658.06;;;29.96;40.66
60725;BME280;59881;36.722;-4.462;2022-07-29T12:04:25;100002.50;;;25.78;42.21
60725;BME280;59881;36.722;-4.462;2022-07-29T12:06:55;100391.16;;;28.14;42.63
60725;BME280;59881;36.722;-4.462;2022-07-29T12:09:22;100547.69;;;28.92;40.88
60725;BME280;59881;36.722;-4.462;2022-07-29T12:11:49;100090.72;;;25.77;43.62
60725;BME280;59881;36.722;-4.462;2022-07-29T12:14:39;99998.91;;;25.21;43.98
60725;BME280;59881;36.722;-4.462;2022-07-29T12:17:29;100472.78;;;28.17;43.23
60725;BME280;59881;36.722;-4.462;2022-07-29T12:19:59;99816.72;;;24.29;42.38
60725;BME280;59881;36.722;-4.462;2022-07-29T12:22:42;100650.97;;;29.46;40.68
60725;BME280;59881;36.722;-4.462;2022-07-29T12:25:13;100773.63;;;29.55;41.46
60725;BME280;59881;36.722;-4.462;2022-07-29T12:27:44;100641.00;;;29.58;40.44
60725;BME280;59881;36.722;-4.462;2022-07-29T12:30:14;100758.47;;;29.47;40.00
60725;BME280;59881;36.722;-4.462;2022-07-29T12:32:46;100040.09;;;25.73;40.87
60725;BME280;59881;36.722;-4.462;2022-07-29T12:35:18;99966.47;;;25.34;41.43
60725;BME280;59881;36.722;-4.462;2022-07-29T12:37:48;100518.44;;;28.76;41.42
60725;BME280;59881;36.722;-4.462;2022-07-29T12:40:21;99996.22;;;25.52;40.59
60725;BME280;59881;36.722;-4.462;2022-07-29T12:45:43;100018.41;;;25.54;39.18
60725;BME280;59881;36.722;-4.462;2022-07-29T12:48:09;99918.94;;;25.01;40.39
60725;BME280;59881;36.722;-4.462;2022-07-29T12:50:36;100416.44;;;28.08;41.12
60725;BME280;59881;36.722;-4.462;2022-07-29T12:53:10;100559.28;;;28.81;42.20
60725;BME280;59881;36.722;-4.462;2022-07-29T12:55:43;100638.09;;;29.23;42.91
60725;BME280;59881;36.722;-4.462;2022-07-29T12:58:10;100648.09;;;29.22;43.30
60725;BME280;59881;36.722;-4.462;2022-07-29T13:00:35;100640.13;;;29.09;44.94
60725;BME280;59881;36.722;-4.462;2022-07-29T13:03:01;100651.00;;;29.02;44.86
60725;BME280;59881;36.722;-4.462;2022-07-29T13:05:43;99979.53;;;24.85;45.48
60725;BME280;59881;36.722;-4.462;2022-07-29T13:08:11;100150.22;;;25.89;44.85
60725;BME280;59881;36.722;-4.462;2022-07-29T13:10:36;99913.38;;;24.37;45.93
60725;BME280;59881;36.722;-4.462;2022-07-29T13:15:29;100026.63;;;24.69;47.96
60725;BME280;59881;36.722;-4.462;2022-07-29T13:17:55;100555.72;;;27.86;48.82
60725;BME280;59881;36.722;-4.462;2022-07-29T13:20:24;100080.84;;;24.86;47.61
60725;BME280;59881;36.722;-4.462;2022-07-29T13:22:52;99948.84;;;24.01;48.05
60725;BME280;59881;36.722;-4.462;2022-07-29T13:25:28;100509.47;;;27.56;48.03
60725;BME280;59881;36.722;-4.462;2022-07-29T13:27:55;99999.31;;;24.52;48.59
60725;BME280;59881;36.722;-4.462;2022-07-29T13:30:21;100009.69;;;24.55;48.39
60725;BME280;59881;36.722;-4.462;2022-07-29T13:32:48;99984.22;;;24.31;49.18
60725;BME280;59881;36.722;-4.462;2022-07-29T13:35:14;100608.56;;;27.96;49.74
60725;BME280;59881;36.722;-4.462;2022-07-29T13:37:40;100811.84;;;28.39;49.44